sensor_id;sensor_type;location;lat;lon;timestamp;P1;durP1;ratioP1;P2;durP2;ratioP2
66112;SDS011;52893;52.870;5.822;2022-11-18T00:01:11;7.43;;;1.92;;
66112;SDS011;52893;52.870;5.822;2022-11-18T00:03:40;4.07;;;2.08;;
66112;SDS011;52893;52.870;5.822;2022-11-18T00:06:09;8.02;;;2.55;;
66112;SDS011;52893;52.870;5.822;2022-11-18T00:08:37;6.22;;;1.98;;
66112;SDS011;52893;52.870;5.822;2022-11-18T00:11:05;5.63;;;2.60;;
66112;SDS011;52893;52.870;5.822;2022-11-18T00:13:32;5.75;;;2.78;;
66112;SDS011;52893;52.870;5.822;2022-11-18T00:16:19;8.43;;;2.42;;
66112;SDS011;52893;52.870;5.822;2022-11-18T00:18:46;8.20;;;2.67;;
66112;SDS011;52893;52.870;5.822;2022-11-18T00:21:13;4.65;;;2.17;;
66112;SDS011;52893;52.870;5.822;2022-11-18T00:23:40;7.20;;;1.92;;
66112;SDS011;52893;52.870;5.822;2022-11-18T00:26:08;6.28;;;2.33;;
66112;SDS011;52893;52.870;5.822;2022-11-18T00:28:37;6.88;;;2.25;;
66112;SDS011;52893;52.870;5.822;2022-11-18T00:31:05;5.30;;;1.85;;
66112;SDS011;52893;52.870;5.822;2022-11-18T00:33:35;11.93;;;2.40;;
66112;SDS011;52893;52.870;5.822;2022-11-18T00:36:03;3.67;;;2.20;;
66112;SDS011;52893;52.870;5.822;2022-11-18T00:38:31;5.15;;;2.58;;
66112;SDS011;52893;52.870;5.822;2022-11-18T00:40:58;8.05;;;2.40;;
66112;SDS011;52893;52.870;5.822;2022-11-18T00:43:26;3.78;;;2.15;;
66112;SDS011;52893;52.870;5.822;2022-11-18T00:45:53;8.75;;;2.65;;
66112;SDS011;52893;52.870;5.822;2022-11-18T00:48:20;6.15;;;2.45;;
66112;SDS011;52893;52.870;5.822;2022-11-18T00:50:49;9.82;;;2.30;;
66112;SDS011;52893;52.870;5.822;2022-11-18T00:53:17;13.13;;;2.40;;
66112;SDS011;52893;52.870;5.822;2022-11-18T00:55:45;7.22;;;3.05;;
66112;SDS011;52893;52.870;5.822;2022-11-18T00:58:12;9.15;;;3.40;;
66112;SDS011;52893;52.870;5.822;2022-11-18T01:00:39;7.97;;;3.35;;
66112;SDS011;52893;52.870;5.822;2022-11-18T01:03:07;6.65;;;3.38;;
66112;SDS011;52893;52.870;5.822;2022-11-18T01:05:34;5.95;;;2.83;;
66112;SDS011;52893;52.870;5.822;2022-11-18T01:08:03;9.88;;;3.25;;
66112;SDS011;52893;52.870;5.822;2022-11-18T01:10:31;3.78;;;2.35;;
66112;SDS011;52893;52.870;5.822;2022-11-18T01:12:58;5.68;;;2.90;;
66112;SDS011;52893;52.870;5.822;2022-11-18T01:15:44;3.83;;;2.53;;
66112;SDS011;52893;52.870;5.822;2022-11-18T01:18:12;7.88;;;2.97;;
66112;SDS011;52893;52.870;5.822;2022-11-18T01:20:39;12.18;;;3.42;;
66112;SDS011;52893;52.870;5.822;2022-11-18T01:23:07;9.32;;;3.50;;
66112;SDS011;52893;52.870;5.822;2022-11-18T01:25:35;10.60;;;3.65;;
66112;SDS011;52893;52.870;5.822;2022-11-18T01:28:03;8.90;;;3.20;;
66112;SDS011;52893;52.870;5.822;2022-11-18T01:30:31;10.02;;;3.13;;
66112;SDS011;52893;52.870;5.822;2022-11-18T01:32:59;4.65;;;3.47;;
66112;SDS011;52893;52.870;5.822;2022-11-18T01:35:27;5.28;;;3.05;;
66112;SDS011;52893;52.870;5.822;2022-11-18T01:37:54;12.43;;;4.10;;
66112;SDS011;52893;52.870;5.822;2022-11-18T01:40:24;15.77;;;3.20;;
66112;SDS011;52893;52.870;5.822;2022-11-18T01:42:53;13.27;;;3.85;;
66112;SDS011;52893;52.870;5.822;2022-11-18T01:45:24;8.75;;;4.28;;
66112;SDS011;52893;52.870;5.822;2022-11-18T01:47:56;5.28;;;2.35;;
66112;SDS011;52893;52.870;5.822;2022-11-18T01:52:56;11.98;;;3.70;;
66112;SDS011;52893;52.870;5.822;2022-11-18T01:55:29;11.20;;;3.90;;
66112;SDS011;52893;52.870;5.822;2022-11-18T01:58:00;9.70;;;3.90;;
66112;SDS011;52893;52.870;5.822;2022-11-18T02:00:35;12.13;;;4.32;;
66112;SDS011;52893;52.870;5.822;2022-11-18T02:03:03;9.15;;;3.83;;
66112;SDS011;52893;52.870;5.822;2022-11-18T02:05:31;5.60;;;3.33;;
66112;SDS011;52893;52.870;5.822;2022-11-18T02:07:59;11.85;;;5.95;;
66112;SDS011;52893;52.870;5.822;2022-11-18T02:10:28;9.63;;;4.85;;
66112;SDS011;52893;52.870;5.822;2022-11-18T02:12:55;17.90;;;5.50;;
66112;SDS011;52893;52.870;5.822;2022-11-18T02:15:25;10.93;;;5.05;;
66112;SDS011;52893;52.870;5.822;2022-11-18T02:18:03;17.77;;;5.82;;
66112;SDS011;52893;52.870;5.822;2022-11-18T02:20:38;8.55;;;4.55;;
66112;SDS011;52893;52.870;5.822;2022-11-18T02:23:13;9.75;;;4.93;;
66112;SDS011;52893;52.870;5.822;2022-11-18T02:26:08;12.32;;;5.55;;
66112;SDS011;52893;52.870;5.822;2022-11-18T02:28:57;10.07;;;6.00;;
66112;SDS011;52893;52.870;5.822;2022-11-18T02:31:31;12.52;;;7.00;;
66112;SDS011;52893;52.870;5.822;2022-11-18T02:34:02;5.10;;;4.10;;
66112;SDS011;52893;52.870;5.822;2022-11-18T02:36:38;13.45;;;5.93;;
66112;SDS011;52893;52.870;5.822;2022-11-18T02:39:08;8.88;;;4.63;;
66112;SDS011;52893;52.870;5.822;2022-11-18T02:41:40;19.33;;;8.63;;
66112;SDS011;52893;52.870;5.822;2022-11-18T02:44:12;13.32;;;7.55;;
66112;SDS011;52893;52.870;5.822;2022-11-18T02:46:41;13.05;;;7.15;;
66112;SDS011;52893;52.870;5.822;2022-11-18T02:49:12;18.10;;;8.65;;
66112;SDS011;52893;52.870;5.822;2022-11-18T02:51:44;14.90;;;6.95;;
66112;SDS011;52893;52.870;5.822;2022-11-18T02:54:12;18.02;;;6.32;;
66112;SDS011;52893;52.870;5.822;2022-11-18T02:56:42;17.35;;;8.07;;
66112;SDS011;52893;52.870;5.822;2022-11-18T02:59:17;17.27;;;7.63;;
66112;SDS011;52893;52.870;5.822;2022-11-18T03:01:44;17.70;;;7.65;;
66112;SDS011;52893;52.870;5.822;2022-11-18T03:04:12;15.48;;;7.53;;
66112;SDS011;52893;52.870;5.822;2022-11-18T03:06:43;16.83;;;7.88;;
66112;SDS011;52893;52.870;5.822;2022-11-18T03:09:16;16.33;;;8.03;;
66112;SDS011;52893;52.870;5.822;2022-11-18T03:11:50;18.05;;;8.45;;
66112;SDS011;52893;52.870;5.822;2022-11-18T03:14:27;15.20;;;7.75;;
66112;SDS011;52893;52.870;5.822;2022-11-18T03:17:03;16.75;;;7.22;;
66112;SDS011;52893;52.870;5.822;2022-11-18T03:19:40;16.88;;;8.13;;
66112;SDS011;52893;52.870;5.822;2022-11-18T03:22:20;13.77;;;8.07;;
66112;SDS011;52893;52.870;5.822;2022-11-18T03:24:52;22.08;;;11.13;;
66112;SDS011;52893;52.870;5.822;2022-11-18T03:27:23;23.23;;;11.82;;
66112;SDS011;52893;52.870;5.822;2022-11-18T03:29:57;14.80;;;9.30;;
66112;SDS011;52893;52.870;5.822;2022-11-18T03:32:28;22.17;;;11.32;;
66112;SDS011;52893;52.870;5.822;2022-11-18T03:34:59;21.70;;;12.13;;
66112;SDS011;52893;52.870;5.822;2022-11-18T03:37:30;28.35;;;11.40;;
66112;SDS011;52893;52.870;5.822;2022-11-18T03:40:02;27.88;;;12.45;;
66112;SDS011;52893;52.870;5.822;2022-11-18T03:42:36;18.23;;;9.88;;
66112;SDS011;52893;52.870;5.822;2022-11-18T03:45:11;29.87;;;15.23;;
66112;SDS011;52893;52.870;5.822;2022-11-18T03:47:42;35.97;;;17.50;;
66112;SDS011;52893;52.870;5.822;2022-11-18T03:50:14;40.65;;;19.65;;
66112;SDS011;52893;52.870;5.822;2022-11-18T03:52:45;27.40;;;13.43;;
66112;SDS011;52893;52.870;5.822;2022-11-18T03:55:14;33.97;;;16.38;;
66112;SDS011;52893;52.870;5.822;2022-11-18T03:57:45;25.23;;;14.10;;
66112;SDS011;52893;52.870;5.822;2022-11-18T04:02:46;32.97;;;17.58;;
66112;SDS011;52893;52.870;5.822;2022-11-18T04:05:15;36.08;;;17.10;;
66112;SDS011;52893;52.870;5.822;2022-11-18T04:07:47;49.55;;;22.92;;
66112;SDS011;52893;52.870;5.822;2022-11-18T04:10:20;49.25;;;22.13;;
66112;SDS011;52893;52.870;5.822;2022-11-18T04:12:52;40.72;;;19.15;;
66112;SDS011;52893;52.870;5.822;2022-11-18T04:15:26;35.85;;;16.85;;
66112;SDS011;52893;52.870;5.822;2022-11-18T04:17:53;42.58;;;18.75;;
66112;SDS011;52893;52.870;5.822;2022-11-18T04:20:21;44.30;;;23.55;;
66112;SDS011;52893;52.870;5.822;2022-11-18T04:22:48;34.70;;;17.15;;
66112;SDS011;52893;52.870;5.822;2022-11-18T04:25:15;43.40;;;20.33;;
66112;SDS011;52893;52.870;5.822;2022-11-18T04:27:43;44.88;;;20.05;;
66112;SDS011;52893;52.870;5.822;2022-11-18T04:30:12;46.25;;;23.85;;
66112;SDS011;52893;52.870;5.822;2022-11-18T04:32:40;37.00;;;18.23;;
66112;SDS011;52893;52.870;5.822;2022-11-18T04:35:08;47.17;;;21.33;;
66112;SDS011;52893;52.870;5.822;2022-11-18T04:37:35;44.75;;;20.60;;
66112;SDS011;52893;52.870;5.822;2022-11-18T04:40:02;57.83;;;27.95;;
66112;SDS011;52893;52.870;5.822;2022-11-18T04:42:30;46.92;;;22.30;;
66112;SDS011;52893;52.870;5.822;2022-11-18T04:44:57;33.38;;;17.02;;
66112;SDS011;52893;52.870;5.822;2022-11-18T04:47:25;53.30;;;25.27;;
66112;SDS011;52893;52.870;5.822;2022-11-18T04:49:53;53.08;;;21.77;;
66112;SDS011;52893;52.870;5.822;2022-11-18T04:52:20;47.03;;;21.08;;
66112;SDS011;52893;52.870;5.822;2022-11-18T04:54:48;48.72;;;22.65;;
66112;SDS011;52893;52.870;5.822;2022-11-18T04:57:15;36.35;;;16.85;;
66112;SDS011;52893;52.870;5.822;2022-11-18T04:59:42;56.30;;;26.52;;
66112;SDS011;52893;52.870;5.822;2022-11-18T05:02:09;51.63;;;21.38;;
66112;SDS011;52893;52.870;5.822;2022-11-18T05:04:36;47.55;;;24.38;;
66112;SDS011;52893;52.870;5.822;2022-11-18T05:07:05;56.53;;;23.13;;
66112;SDS011;52893;52.870;5.822;2022-11-18T05:09:32;52.47;;;26.42;;
66112;SDS011;52893;52.870;5.822;2022-11-18T05:12:00;64.40;;;29.92;;
66112;SDS011;52893;52.870;5.822;2022-11-18T05:14:44;50.08;;;22.55;;
66112;SDS011;52893;52.870;5.822;2022-11-18T05:17:12;43.70;;;19.88;;
66112;SDS011;52893;52.870;5.822;2022-11-18T05:19:39;58.08;;;27.08;;
66112;SDS011;52893;52.870;5.822;2022-11-18T05:22:07;53.22;;;24.58;;
66112;SDS011;52893;52.870;5.822;2022-11-18T05:24:34;45.58;;;22.15;;
66112;SDS011;52893;52.870;5.822;2022-11-18T05:27:01;42.30;;;21.25;;
66112;SDS011;52893;52.870;5.822;2022-11-18T05:29:29;52.83;;;23.40;;
66112;SDS011;52893;52.870;5.822;2022-11-18T05:31:56;41.00;;;19.90;;
66112;SDS011;52893;52.870;5.822;2022-11-18T05:34:23;47.65;;;25.70;;
66112;SDS011;52893;52.870;5.822;2022-11-18T05:36:50;43.10;;;20.55;;
66112;SDS011;52893;52.870;5.822;2022-11-18T05:39:19;36.78;;;19.25;;
66112;SDS011;52893;52.870;5.822;2022-11-18T05:41:46;40.72;;;18.23;;
66112;SDS011;52893;52.870;5.822;2022-11-18T05:44:31;42.40;;;21.45;;
66112;SDS011;52893;52.870;5.822;2022-11-18T05:46:58;53.03;;;25.00;;
66112;SDS011;52893;52.870;5.822;2022-11-18T05:49:25;54.78;;;26.48;;
66112;SDS011;52893;52.870;5.822;2022-11-18T05:51:53;42.88;;;20.92;;
66112;SDS011;52893;52.870;5.822;2022-11-18T05:54:21;54.10;;;25.63;;
66112;SDS011;52893;52.870;5.822;2022-11-18T05:56:48;45.92;;;22.02;;
66112;SDS011;52893;52.870;5.822;2022-11-18T05:59:16;46.85;;;22.88;;
66112;SDS011;52893;52.870;5.822;2022-11-18T06:01:44;51.67;;;25.23;;
66112;SDS011;52893;52.870;5.822;2022-11-18T06:04:15;38.97;;;18.42;;
66112;SDS011;52893;52.870;5.822;2022-11-18T06:06:46;44.40;;;20.10;;
66112;SDS011;52893;52.870;5.822;2022-11-18T06:09:14;41.33;;;19.65;;
66112;SDS011;52893;52.870;5.822;2022-11-18T06:11:48;43.95;;;21.13;;
66112;SDS011;52893;52.870;5.822;2022-11-18T06:14:18;47.08;;;23.27;;
66112;SDS011;52893;52.870;5.822;2022-11-18T06:16:49;41.35;;;20.52;;
66112;SDS011;52893;52.870;5.822;2022-11-18T06:19:19;57.35;;;24.45;;
66112;SDS011;52893;52.870;5.822;2022-11-18T06:21:46;41.83;;;19.80;;
66112;SDS011;52893;52.870;5.822;2022-11-18T06:24:14;41.38;;;20.35;;
66112;SDS011;52893;52.870;5.822;2022-11-18T06:26:42;48.78;;;23.02;;
66112;SDS011;52893;52.870;5.822;2022-11-18T06:29:12;39.97;;;18.58;;
66112;SDS011;52893;52.870;5.822;2022-11-18T06:31:43;54.85;;;19.80;;
66112;SDS011;52893;52.870;5.822;2022-11-18T06:34:10;46.55;;;21.75;;
66112;SDS011;52893;52.870;5.822;2022-11-18T06:36:37;55.22;;;25.88;;
66112;SDS011;52893;52.870;5.822;2022-11-18T06:39:05;55.05;;;25.70;;
66112;SDS011;52893;52.870;5.822;2022-11-18T06:41:32;50.97;;;25.70;;
66112;SDS011;52893;52.870;5.822;2022-11-18T06:43:59;29.30;;;15.43;;
66112;SDS011;52893;52.870;5.822;2022-11-18T06:46:27;60.72;;;29.20;;
66112;SDS011;52893;52.870;5.822;2022-11-18T06:49:12;57.33;;;27.83;;
66112;SDS011;52893;52.870;5.822;2022-11-18T06:51:39;42.38;;;20.27;;
66112;SDS011;52893;52.870;5.822;2022-11-18T06:54:06;67.43;;;31.17;;
66112;SDS011;52893;52.870;5.822;2022-11-18T06:56:34;53.90;;;25.02;;
66112;SDS011;52893;52.870;5.822;2022-11-18T06:59:01;47.38;;;22.00;;
66112;SDS011;52893;52.870;5.822;2022-11-18T07:01:31;59.05;;;26.92;;
66112;SDS011;52893;52.870;5.822;2022-11-18T07:04:02;57.97;;;24.05;;
66112;SDS011;52893;52.870;5.822;2022-11-18T07:06:30;53.00;;;23.50;;
66112;SDS011;52893;52.870;5.822;2022-11-18T07:08:59;70.85;;;33.38;;
66112;SDS011;52893;52.870;5.822;2022-11-18T07:11:27;63.63;;;29.10;;
66112;SDS011;52893;52.870;5.822;2022-11-18T07:13:54;67.45;;;30.15;;
66112;SDS011;52893;52.870;5.822;2022-11-18T07:16:24;60.88;;;28.52;;
66112;SDS011;52893;52.870;5.822;2022-11-18T07:18:54;67.22;;;29.63;;
66112;SDS011;52893;52.870;5.822;2022-11-18T07:21:22;49.05;;;22.98;;
66112;SDS011;52893;52.870;5.822;2022-11-18T07:23:51;55.92;;;24.73;;
66112;SDS011;52893;52.870;5.822;2022-11-18T07:26:18;71.85;;;30.13;;
66112;SDS011;52893;52.870;5.822;2022-11-18T07:28:46;48.80;;;22.13;;
66112;SDS011;52893;52.870;5.822;2022-11-18T07:31:13;68.68;;;28.80;;
66112;SDS011;52893;52.870;5.822;2022-11-18T07:33:42;51.30;;;21.70;;
66112;SDS011;52893;52.870;5.822;2022-11-18T07:36:13;67.93;;;29.77;;
66112;SDS011;52893;52.870;5.822;2022-11-18T07:38:41;66.63;;;27.20;;
66112;SDS011;52893;52.870;5.822;2022-11-18T07:41:10;65.35;;;28.00;;
66112;SDS011;52893;52.870;5.822;2022-11-18T07:43:38;51.55;;;23.75;;
66112;SDS011;52893;52.870;5.822;2022-11-18T07:46:13;53.78;;;22.95;;
66112;SDS011;52893;52.870;5.822;2022-11-18T07:48:42;59.20;;;23.67;;
66112;SDS011;52893;52.870;5.822;2022-11-18T07:51:10;58.15;;;24.05;;
66112;SDS011;52893;52.870;5.822;2022-11-18T07:53:40;66.47;;;30.70;;
66112;SDS011;52893;52.870;5.822;2022-11-18T07:56:08;33.30;;;15.07;;
66112;SDS011;52893;52.870;5.822;2022-11-18T07:58:35;48.53;;;20.95;;
66112;SDS011;52893;52.870;5.822;2022-11-18T08:01:06;60.35;;;29.70;;
66112;SDS011;52893;52.870;5.822;2022-11-18T08:03:34;56.90;;;22.85;;
66112;SDS011;52893;52.870;5.822;2022-11-18T08:06:02;52.25;;;23.58;;
66112;SDS011;52893;52.870;5.822;2022-11-18T08:08:31;50.85;;;22.45;;
66112;SDS011;52893;52.870;5.822;2022-11-18T08:11:01;54.13;;;20.90;;
66112;SDS011;52893;52.870;5.822;2022-11-18T08:13:30;43.63;;;18.48;;
66112;SDS011;52893;52.870;5.822;2022-11-18T08:15:58;29.08;;;15.30;;
66112;SDS011;52893;52.870;5.822;2022-11-18T08:18:26;44.20;;;19.85;;
66112;SDS011;52893;52.870;5.822;2022-11-18T08:20:54;30.40;;;16.33;;
66112;SDS011;52893;52.870;5.822;2022-11-18T08:23:21;40.42;;;19.35;;
66112;SDS011;52893;52.870;5.822;2022-11-18T08:25:48;29.33;;;15.52;;
66112;SDS011;52893;52.870;5.822;2022-11-18T08:28:16;54.10;;;23.88;;
66112;SDS011;52893;52.870;5.822;2022-11-18T08:30:44;49.35;;;22.25;;
66112;SDS011;52893;52.870;5.822;2022-11-18T08:33:11;57.40;;;25.17;;
66112;SDS011;52893;52.870;5.822;2022-11-18T08:35:38;30.52;;;16.23;;
66112;SDS011;52893;52.870;5.822;2022-11-18T08:38:05;47.85;;;22.63;;
66112;SDS011;52893;52.870;5.822;2022-11-18T08:40:32;45.38;;;21.15;;
66112;SDS011;52893;52.870;5.822;2022-11-18T08:42:59;30.45;;;15.38;;
66112;SDS011;52893;52.870;5.822;2022-11-18T08:45:28;40.28;;;20.38;;
66112;SDS011;52893;52.870;5.822;2022-11-18T08:47:55;50.53;;;23.40;;
66112;SDS011;52893;52.870;5.822;2022-11-18T08:50:22;45.00;;;21.05;;
66112;SDS011;52893;52.870;5.822;2022-11-18T08:52:49;44.90;;;21.23;;
66112;SDS011;52893;52.870;5.822;2022-11-18T08:55:16;45.83;;;21.00;;
66112;SDS011;52893;52.870;5.822;2022-11-18T08:57:44;43.20;;;19.35;;
66112;SDS011;52893;52.870;5.822;2022-11-18T09:00:12;50.67;;;21.35;;
66112;SDS011;52893;52.870;5.822;2022-11-18T09:02:41;37.97;;;18.90;;
66112;SDS011;52893;52.870;5.822;2022-11-18T09:05:09;42.20;;;20.85;;
66112;SDS011;52893;52.870;5.822;2022-11-18T09:07:36;36.38;;;18.20;;
66112;SDS011;52893;52.870;5.822;2022-11-18T09:10:03;44.00;;;20.90;;
66112;SDS011;52893;52.870;5.822;2022-11-18T09:12:31;40.72;;;17.55;;
66112;SDS011;52893;52.870;5.822;2022-11-18T09:14:58;44.67;;;18.90;;
66112;SDS011;52893;52.870;5.822;2022-11-18T09:17:25;60.78;;;27.48;;
66112;SDS011;52893;52.870;5.822;2022-11-18T09:19:54;42.72;;;18.05;;
66112;SDS011;52893;52.870;5.822;2022-11-18T09:22:21;46.47;;;22.77;;
66112;SDS011;52893;52.870;5.822;2022-11-18T09:24:48;41.88;;;20.40;;
66112;SDS011;52893;52.870;5.822;2022-11-18T09:27:15;38.85;;;20.13;;
66112;SDS011;52893;52.870;5.822;2022-11-18T09:29:42;37.35;;;17.98;;
66112;SDS011;52893;52.870;5.822;2022-11-18T09:32:10;53.17;;;22.25;;
66112;SDS011;52893;52.870;5.822;2022-11-18T09:34:37;39.42;;;18.95;;
66112;SDS011;52893;52.870;5.822;2022-11-18T09:37:05;47.13;;;22.00;;
66112;SDS011;52893;52.870;5.822;2022-11-18T09:39:33;48.88;;;25.42;;
66112;SDS011;52893;52.870;5.822;2022-11-18T09:42:05;47.10;;;24.67;;
66112;SDS011;52893;52.870;5.822;2022-11-18T09:44:47;38.85;;;19.10;;
66112;SDS011;52893;52.870;5.822;2022-11-18T09:47:25;40.70;;;17.05;;
66112;SDS011;52893;52.870;5.822;2022-11-18T09:49:54;39.55;;;17.88;;
66112;SDS011;52893;52.870;5.822;2022-11-18T09:52:26;32.67;;;15.57;;
66112;SDS011;52893;52.870;5.822;2022-11-18T09:54:55;33.75;;;17.55;;
66112;SDS011;52893;52.870;5.822;2022-11-18T09:57:23;41.75;;;21.00;;
66112;SDS011;52893;52.870;5.822;2022-11-18T09:59:55;40.80;;;18.80;;
66112;SDS011;52893;52.870;5.822;2022-11-18T10:02:33;39.95;;;21.75;;
66112;SDS011;52893;52.870;5.822;2022-11-18T10:05:15;31.83;;;16.90;;
66112;SDS011;52893;52.870;5.822;2022-11-18T10:07:48;36.92;;;18.83;;
66112;SDS011;52893;52.870;5.822;2022-11-18T10:10:23;43.75;;;20.08;;
66112;SDS011;52893;52.870;5.822;2022-11-18T10:12:57;32.53;;;15.98;;
66112;SDS011;52893;52.870;5.822;2022-11-18T10:15:28;34.75;;;15.63;;
66112;SDS011;52893;52.870;5.822;2022-11-18T10:18:04;22.98;;;11.38;;
66112;SDS011;52893;52.870;5.822;2022-11-18T10:20:45;31.30;;;17.27;;
66112;SDS011;52893;52.870;5.822;2022-11-18T10:23:23;30.27;;;15.55;;
66112;SDS011;52893;52.870;5.822;2022-11-18T10:25:54;28.23;;;12.93;;
66112;SDS011;52893;52.870;5.822;2022-11-18T10:28:24;28.65;;;16.70;;
66112;SDS011;52893;52.870;5.822;2022-11-18T10:30:54;21.15;;;11.88;;
66112;SDS011;52893;52.870;5.822;2022-11-18T10:33:30;22.15;;;11.38;;
66112;SDS011;52893;52.870;5.822;2022-11-18T10:36:08;18.00;;;9.38;;
66112;SDS011;52893;52.870;5.822;2022-11-18T10:38:38;28.02;;;13.85;;
66112;SDS011;52893;52.870;5.822;2022-11-18T10:41:08;22.75;;;13.50;;
66112;SDS011;52893;52.870;5.822;2022-11-18T10:43:42;22.00;;;12.90;;
66112;SDS011;52893;52.870;5.822;2022-11-18T10:46:15;24.88;;;14.70;;
66112;SDS011;52893;52.870;5.822;2022-11-18T10:48:44;32.20;;;13.75;;
66112;SDS011;52893;52.870;5.822;2022-11-18T10:51:21;24.48;;;13.05;;
66112;SDS011;52893;52.870;5.822;2022-11-18T10:53:51;24.25;;;13.90;;
66112;SDS011;52893;52.870;5.822;2022-11-18T10:56:18;19.92;;;10.88;;
66112;SDS011;52893;52.870;5.822;2022-11-18T10:58:46;27.05;;;13.35;;
66112;SDS011;52893;52.870;5.822;2022-11-18T11:01:18;20.45;;;10.95;;
66112;SDS011;52893;52.870;5.822;2022-11-18T11:03:55;27.92;;;11.85;;
66112;SDS011;52893;52.870;5.822;2022-11-18T11:09:06;27.05;;;13.02;;
66112;SDS011;52893;52.870;5.822;2022-11-18T11:11:35;20.92;;;9.60;;
66112;SDS011;52893;52.870;5.822;2022-11-18T11:14:05;21.98;;;11.15;;
66112;SDS011;52893;52.870;5.822;2022-11-18T11:16:44;16.92;;;9.15;;
66112;SDS011;52893;52.870;5.822;2022-11-18T11:19:18;19.27;;;9.57;;
66112;SDS011;52893;52.870;5.822;2022-11-18T11:21:49;22.60;;;10.95;;
66112;SDS011;52893;52.870;5.822;2022-11-18T11:24:18;20.30;;;9.43;;
66112;SDS011;52893;52.870;5.822;2022-11-18T11:26:51;16.40;;;8.70;;
66112;SDS011;52893;52.870;5.822;2022-11-18T11:29:27;17.50;;;8.80;;
66112;SDS011;52893;52.870;5.822;2022-11-18T11:32:05;16.40;;;8.75;;
66112;SDS011;52893;52.870;5.822;2022-11-18T11:34:41;20.85;;;12.05;;
66112;SDS011;52893;52.870;5.822;2022-11-18T11:37:13;19.02;;;8.65;;
66112;SDS011;52893;52.870;5.822;2022-11-18T11:39:56;19.00;;;9.82;;
66112;SDS011;52893;52.870;5.822;2022-11-18T11:42:37;17.92;;;8.95;;
66112;SDS011;52893;52.870;5.822;2022-11-18T11:45:15;23.63;;;12.13;;
66112;SDS011;52893;52.870;5.822;2022-11-18T11:47:51;24.15;;;11.05;;
66112;SDS011;52893;52.870;5.822;2022-11-18T11:50:32;18.77;;;9.68;;
66112;SDS011;52893;52.870;5.822;2022-11-18T11:53:21;27.30;;;10.73;;
66112;SDS011;52893;52.870;5.822;2022-11-18T11:56:01;16.95;;;7.50;;
66112;SDS011;52893;52.870;5.822;2022-11-18T12:01:33;19.08;;;9.57;;
66112;SDS011;52893;52.870;5.822;2022-11-18T12:04:10;22.23;;;11.20;;
66112;SDS011;52893;52.870;5.822;2022-11-18T12:06:50;20.33;;;8.73;;
66112;SDS011;52893;52.870;5.822;2022-11-18T12:09:20;19.70;;;12.27;;
66112;SDS011;52893;52.870;5.822;2022-11-18T12:11:59;20.13;;;9.32;;
66112;SDS011;52893;52.870;5.822;2022-11-18T12:14:51;24.73;;;11.77;;
66112;SDS011;52893;52.870;5.822;2022-11-18T12:17:23;20.30;;;9.95;;
66112;SDS011;52893;52.870;5.822;2022-11-18T12:19:58;25.40;;;13.07;;
66112;SDS011;52893;52.870;5.822;2022-11-18T12:31:25;21.48;;;10.50;;
66112;SDS011;52893;52.870;5.822;2022-11-18T12:33:58;29.05;;;13.50;;
66112;SDS011;52893;52.870;5.822;2022-11-18T12:36:27;28.85;;;14.50;;
66112;SDS011;52893;52.870;5.822;2022-11-18T12:38:57;34.38;;;14.80;;
66112;SDS011;52893;52.870;5.822;2022-11-18T12:41:53;26.60;;;12.07;;
66112;SDS011;52893;52.870;5.822;2022-11-18T12:44:38;20.35;;;9.63;;
66112;SDS011;52893;52.870;5.822;2022-11-18T12:47:06;30.02;;;15.15;;
66112;SDS011;52893;52.870;5.822;2022-11-18T12:52:50;27.08;;;9.45;;
66112;SDS011;52893;52.870;5.822;2022-11-18T12:58:24;30.15;;;12.50;;
66112;SDS011;52893;52.870;5.822;2022-11-18T13:01:02;21.40;;;10.40;;
66112;SDS011;52893;52.870;5.822;2022-11-18T13:03:32;16.13;;;8.02;;
66112;SDS011;52893;52.870;5.822;2022-11-18T13:06:00;15.93;;;8.43;;
66112;SDS011;52893;52.870;5.822;2022-11-18T13:08:32;23.27;;;12.35;;
66112;SDS011;52893;52.870;5.822;2022-11-18T13:11:03;14.88;;;7.88;;
66112;SDS011;52893;52.870;5.822;2022-11-18T13:13:54;14.90;;;8.67;;
66112;SDS011;52893;52.870;5.822;2022-11-18T13:16:35;20.38;;;9.57;;
66112;SDS011;52893;52.870;5.822;2022-11-18T13:19:20;21.17;;;10.65;;
66112;SDS011;52893;52.870;5.822;2022-11-18T13:21:52;13.00;;;7.97;;
66112;SDS011;52893;52.870;5.822;2022-11-18T13:24:42;22.63;;;12.52;;
66112;SDS011;52893;52.870;5.822;2022-11-18T13:27:13;16.08;;;8.32;;
66112;SDS011;52893;52.870;5.822;2022-11-18T13:29:50;12.10;;;6.38;;
66112;SDS011;52893;52.870;5.822;2022-11-18T13:32:24;11.38;;;6.38;;
66112;SDS011;52893;52.870;5.822;2022-11-18T13:34:53;13.20;;;7.28;;
66112;SDS011;52893;52.870;5.822;2022-11-18T13:37:22;16.67;;;10.25;;
66112;SDS011;52893;52.870;5.822;2022-11-18T13:39:51;12.05;;;7.22;;
66112;SDS011;52893;52.870;5.822;2022-11-18T13:42:20;12.18;;;6.13;;
66112;SDS011;52893;52.870;5.822;2022-11-18T13:44:53;11.25;;;6.03;;
66112;SDS011;52893;52.870;5.822;2022-11-18T13:47:23;11.75;;;6.20;;
66112;SDS011;52893;52.870;5.822;2022-11-18T13:49:56;13.15;;;6.18;;
66112;SDS011;52893;52.870;5.822;2022-11-18T13:52:29;7.20;;;4.32;;
66112;SDS011;52893;52.870;5.822;2022-11-18T13:55:00;11.27;;;6.03;;
66112;SDS011;52893;52.870;5.822;2022-11-18T13:57:33;8.13;;;4.72;;
66112;SDS011;52893;52.870;5.822;2022-11-18T14:00:04;14.30;;;6.05;;
66112;SDS011;52893;52.870;5.822;2022-11-18T14:02:37;6.72;;;4.07;;
66112;SDS011;52893;52.870;5.822;2022-11-18T14:05:15;13.68;;;6.65;;
66112;SDS011;52893;52.870;5.822;2022-11-18T14:07:52;7.38;;;4.75;;
66112;SDS011;52893;52.870;5.822;2022-11-18T14:10:27;16.30;;;7.68;;
66112;SDS011;52893;52.870;5.822;2022-11-18T14:12:56;14.68;;;6.13;;
66112;SDS011;52893;52.870;5.822;2022-11-18T14:15:33;9.35;;;5.90;;
66112;SDS011;52893;52.870;5.822;2022-11-18T14:18:01;19.10;;;11.20;;
66112;SDS011;52893;52.870;5.822;2022-11-18T14:20:29;13.43;;;7.30;;
66112;SDS011;52893;52.870;5.822;2022-11-18T14:22:57;14.52;;;7.38;;
66112;SDS011;52893;52.870;5.822;2022-11-18T14:25:28;18.20;;;6.43;;
66112;SDS011;52893;52.870;5.822;2022-11-18T14:27:57;11.68;;;6.28;;
66112;SDS011;52893;52.870;5.822;2022-11-18T14:30:38;14.35;;;6.88;;
66112;SDS011;52893;52.870;5.822;2022-11-18T14:33:17;11.85;;;6.15;;
66112;SDS011;52893;52.870;5.822;2022-11-18T14:35:50;13.93;;;7.15;;
66112;SDS011;52893;52.870;5.822;2022-11-18T14:38:19;9.88;;;6.18;;
66112;SDS011;52893;52.870;5.822;2022-11-18T14:40:53;18.92;;;8.40;;
66112;SDS011;52893;52.870;5.822;2022-11-18T14:43:22;12.38;;;6.80;;
66112;SDS011;52893;52.870;5.822;2022-11-18T14:45:50;15.00;;;7.55;;
66112;SDS011;52893;52.870;5.822;2022-11-18T14:48:19;18.30;;;10.27;;
66112;SDS011;52893;52.870;5.822;2022-11-18T14:50:48;17.90;;;10.02;;
66112;SDS011;52893;52.870;5.822;2022-11-18T14:53:17;15.90;;;6.20;;
66112;SDS011;52893;52.870;5.822;2022-11-18T14:55:44;18.63;;;11.68;;
66112;SDS011;52893;52.870;5.822;2022-11-18T14:58:14;18.13;;;8.98;;
66112;SDS011;52893;52.870;5.822;2022-11-18T15:00:42;16.98;;;9.30;;
66112;SDS011;52893;52.870;5.822;2022-11-18T15:03:11;14.63;;;6.95;;
66112;SDS011;52893;52.870;5.822;2022-11-18T15:05:38;14.52;;;7.22;;
66112;SDS011;52893;52.870;5.822;2022-11-18T15:08:06;20.00;;;8.63;;
66112;SDS011;52893;52.870;5.822;2022-11-18T15:10:34;20.13;;;8.73;;
66112;SDS011;52893;52.870;5.822;2022-11-18T15:13:01;22.02;;;11.55;;
66112;SDS011;52893;52.870;5.822;2022-11-18T15:15:28;22.10;;;12.65;;